createdAt,value
2019-03-13T00:00:31.216Z,183.42
2019-03-13T00:03:04.018Z,205.03
2019-03-13T00:05:36.734Z,204.80
2019-03-13T00:08:09.726Z,199.60
2019-03-13T00:10:42.440Z,200.38
2019-03-13T00:13:15.326Z,199.15
2019-03-13T00:15:49.722Z,184.15
2019-03-13T00:18:22.149Z,191.68
2019-03-13T00:20:54.600Z,182.78
2019-03-13T00:23:27.153Z,184.93
2019-03-13T00:25:59.835Z,178.47
2019-03-13T00:28:32.238Z,165.95
2019-03-13T00:31:17.641Z,170.97
2019-03-13T00:33:50.262Z,169.37
2019-03-13T00:36:22.783Z,193.50
2019-03-13T00:38:55.944Z,186.95
2019-03-13T00:41:28.606Z,177.40
2019-03-13T00:44:01.339Z,176.93
2019-03-13T00:46:34.138Z,169.02
2019-03-13T00:49:06.831Z,167.00
2019-03-13T00:51:39.231Z,168.47
2019-03-13T00:54:11.558Z,164.82
2019-03-13T00:56:44.084Z,168.68
2019-03-13T00:59:16.603Z,161.95
2019-03-13T01:01:50.681Z,160.90
2019-03-13T01:04:24.605Z,168.70
2019-03-13T01:06:58.499Z,160.00
2019-03-13T01:09:31.299Z,163.43
2019-03-13T01:12:04.983Z,158.42
2019-03-13T01:14:37.516Z,152.78
2019-03-13T01:17:10.289Z,155.70
2019-03-13T01:19:43.347Z,147.87
2019-03-13T01:22:16.086Z,146.82
2019-03-13T01:24:48.391Z,154.07
2019-03-13T01:27:21.139Z,153.02
2019-03-13T01:29:54.640Z,155.90
2019-03-13T01:32:28.277Z,159.87
2019-03-13T01:35:02.025Z,158.45
2019-03-13T01:37:34.816Z,153.42
2019-03-13T01:40:09.958Z,148.93
2019-03-13T01:42:42.375Z,152.25
2019-03-13T01:45:14.951Z,153.47
2019-03-13T01:47:47.532Z,153.45
2019-03-13T01:50:20.304Z,154.70
2019-03-13T01:52:52.926Z,159.05
2019-03-13T01:55:25.254Z,158.10
2019-03-13T01:58:09.798Z,161.03
2019-03-13T02:00:42.432Z,164.22
2019-03-13T02:03:14.908Z,162.37
2019-03-13T02:05:47.550Z,168.28
2019-03-13T02:08:19.823Z,163.95
2019-03-13T02:10:52.363Z,163.60
2019-03-13T02:13:24.664Z,171.50
2019-03-13T02:15:57.601Z,172.53
2019-03-13T02:18:29.911Z,174.12
2019-03-13T02:21:02.298Z,173.90
2019-03-13T02:23:34.791Z,169.22
2019-03-13T02:26:07.606Z,166.80
2019-03-13T02:28:39.946Z,167.82
2019-03-13T02:31:13.094Z,177.22
2019-03-13T02:33:45.465Z,176.47
2019-03-13T02:36:18.128Z,175.10
2019-03-13T02:38:50.687Z,167.00
2019-03-13T02:41:23.145Z,168.43
2019-03-13T02:43:55.910Z,172.87
2019-03-13T02:46:28.522Z,165.35
2019-03-13T02:49:00.935Z,169.50
2019-03-13T02:51:33.592Z,167.93
2019-03-13T02:54:06.157Z,162.85
2019-03-13T02:56:38.531Z,161.85
2019-03-13T02:59:11.461Z,158.55
2019-03-13T03:01:45.349Z,153.97
2019-03-13T03:04:17.670Z,148.62
2019-03-13T03:06:50.338Z,146.65
2019-03-13T03:09:22.813Z,147.70
2019-03-13T03:11:55.440Z,145.77
2019-03-13T03:14:27.854Z,140.60
2019-03-13T03:17:00.193Z,141.55
2019-03-13T03:19:33.145Z,146.85
2019-03-13T03:22:05.455Z,139.12
2019-03-13T03:24:37.918Z,142.55
2019-03-13T03:27:10.162Z,144.57
2019-03-13T03:29:43.002Z,142.65
2019-03-13T03:32:15.610Z,143.45
2019-03-13T03:34:48.235Z,137.65
2019-03-13T03:37:20.770Z,138.43
2019-03-13T03:39:53.476Z,132.63
2019-03-13T03:42:26.053Z,130.00
2019-03-13T03:44:58.526Z,130.35
2019-03-13T03:47:32.120Z,132.67
2019-03-13T03:50:04.924Z,129.12
2019-03-13T03:52:37.856Z,131.07
2019-03-13T03:55:12.332Z,126.45
2019-03-13T03:57:45.324Z,123.85
2019-03-13T04:00:19.967Z,126.53
2019-03-13T04:02:52.480Z,128.30
2019-03-13T04:05:25.279Z,124.02
2019-03-13T04:07:57.550Z,122.58
2019-03-13T04:10:30.975Z,119.97
2019-03-13T04:13:03.675Z,120.13
2019-03-13T04:15:36.876Z,117.03
2019-03-13T04:18:09.444Z,114.15
2019-03-13T04:20:42.225Z,115.88
2019-03-13T04:23:14.676Z,113.22
2019-03-13T04:25:47.401Z,115.60
2019-03-13T04:28:19.993Z,109.95
2019-03-13T04:30:52.362Z,112.40
2019-03-13T04:33:28.086Z,80.53
2019-03-13T04:35:59.277Z,73.12
2019-03-13T04:38:31.726Z,68.07
2019-03-13T04:41:04.287Z,86.30
2019-03-13T04:43:36.571Z,69.25
2019-03-13T04:46:09.092Z,70.28
2019-03-13T04:48:41.719Z,82.30
2019-03-13T04:51:15.307Z,67.30
2019-03-13T04:53:47.880Z,66.70
2019-03-13T04:56:20.404Z,68.28
2019-03-13T04:58:52.972Z,65.45
2019-03-13T05:01:26.359Z,64.92
2019-03-13T05:03:59.041Z,62.98
2019-03-13T05:06:31.521Z,64.80
2019-03-13T05:09:05.449Z,64.07
2019-03-13T05:11:38.439Z,62.20
2019-03-13T05:14:11.693Z,61.88
2019-03-13T05:16:46.502Z,63.00
2019-03-13T05:19:18.923Z,61.63
2019-03-13T05:21:51.437Z,61.77
2019-03-13T05:24:23.923Z,61.80
2019-03-13T05:26:56.455Z,59.13
2019-03-13T05:29:29.013Z,59.00
2019-03-13T05:32:01.735Z,58.50
2019-03-13T05:34:34.804Z,58.92
2019-03-13T05:37:07.545Z,53.17
2019-03-13T05:39:40.532Z,51.83
2019-03-13T05:42:13.331Z,48.90
2019-03-13T05:44:45.779Z,51.85
2019-03-13T05:47:18.428Z,51.15
2019-03-13T05:49:51.047Z,51.37
2019-03-13T05:52:23.693Z,51.40
2019-03-13T05:54:55.983Z,46.98
2019-03-13T05:57:28.399Z,49.38
2019-03-13T06:00:00.827Z,47.93
2019-03-13T06:02:33.475Z,48.13
2019-03-13T06:05:07.141Z,50.15
2019-03-13T06:07:40.053Z,52.70
2019-03-13T06:10:14.675Z,52.85
2019-03-13T06:12:47.327Z,46.35
2019-03-13T06:15:19.764Z,42.53
2019-03-13T06:17:52.172Z,44.58
2019-03-13T06:20:25.060Z,40.92
2019-03-13T06:23:00.792Z,42.17
2019-03-13T06:25:33.233Z,42.53
2019-03-13T06:28:05.872Z,38.50
2019-03-13T06:30:38.514Z,38.63
2019-03-13T06:33:11.112Z,40.98
2019-03-13T06:35:43.673Z,36.40
2019-03-13T06:38:16.245Z,39.73
2019-03-13T06:40:49.104Z,35.92
2019-03-13T06:43:21.719Z,38.53
2019-03-13T06:45:54.202Z,39.55
2019-03-13T06:48:26.675Z,40.48
2019-03-13T06:50:59.295Z,39.63
2019-03-13T06:53:31.823Z,39.98
2019-03-13T06:56:04.625Z,38.65
2019-03-13T06:58:38.310Z,39.18
2019-03-13T07:01:12.784Z,36.28
2019-03-13T07:03:46.337Z,38.58
2019-03-13T07:06:20.379Z,38.23
2019-03-13T07:08:54.558Z,37.85
2019-03-13T07:11:28.479Z,36.95
2019-03-13T07:14:02.499Z,40.48
2019-03-13T07:16:36.708Z,39.48
2019-03-13T07:19:10.368Z,38.92
2019-03-13T07:21:44.030Z,41.23
2019-03-13T07:24:18.014Z,40.55
2019-03-13T07:26:52.144Z,41.53
2019-03-13T07:29:26.348Z,40.05
2019-03-13T07:32:00.466Z,40.90
2019-03-13T07:34:34.424Z,39.60
2019-03-13T07:37:08.275Z,38.73
2019-03-13T07:39:41.947Z,39.35
2019-03-13T07:42:15.823Z,38.45
2019-03-13T07:44:49.562Z,36.88
2019-03-13T07:47:23.703Z,35.75
2019-03-13T07:49:58.327Z,35.90
2019-03-13T07:52:32.905Z,35.08
2019-03-13T07:55:08.726Z,36.83
2019-03-13T07:57:42.718Z,35.20
2019-03-13T08:00:17.778Z,34.88
2019-03-13T08:02:51.662Z,34.63
2019-03-13T08:05:26.544Z,33.85
2019-03-13T08:08:00.363Z,35.25
2019-03-13T08:10:34.071Z,32.95
2019-03-13T08:13:07.675Z,32.85
2019-03-13T08:15:41.690Z,31.57
2019-03-13T08:18:15.473Z,32.88
2019-03-13T08:20:49.836Z,29.30
2019-03-13T08:23:24.338Z,29.70
2019-03-13T08:25:58.892Z,30.00
2019-03-13T08:28:33.315Z,28.70
2019-03-13T08:31:07.945Z,30.37
2019-03-13T08:33:43.837Z,30.12
2019-03-13T08:36:17.752Z,29.70
2019-03-13T08:38:51.585Z,29.37
2019-03-13T08:41:25.606Z,29.25
2019-03-13T08:43:59.700Z,28.98
2019-03-13T08:46:33.863Z,28.40
2019-03-13T08:49:07.905Z,26.68
2019-03-13T08:51:42.292Z,27.30
2019-03-13T08:54:16.489Z,26.00
2019-03-13T08:56:50.383Z,27.00
2019-03-13T08:59:24.199Z,26.30
2019-03-13T09:01:57.917Z,26.42
2019-03-13T09:04:31.620Z,27.20
2019-03-13T09:07:06.337Z,25.45
2019-03-13T09:09:40.457Z,24.80
2019-03-13T09:12:14.307Z,24.50
2019-03-13T09:14:48.414Z,25.37
2019-03-13T09:17:22.694Z,24.40
2019-03-13T09:19:56.905Z,24.20
2019-03-13T09:22:30.705Z,22.22
2019-03-13T09:25:11.940Z,21.80
2019-03-13T09:27:39.561Z,22.75
2019-03-13T09:30:15.516Z,22.62
2019-03-13T09:32:49.934Z,21.95
2019-03-13T09:35:23.742Z,21.05
2019-03-13T09:37:58.476Z,21.05
2019-03-13T09:40:32.283Z,20.23
2019-03-13T09:43:06.526Z,20.50
2019-03-13T09:45:40.298Z,20.12
2019-03-13T09:48:14.438Z,20.17
2019-03-13T09:50:48.686Z,20.23
2019-03-13T09:53:23.246Z,19.17
2019-03-13T09:55:56.979Z,19.87
2019-03-13T09:58:31.105Z,17.92
2019-03-13T10:01:04.798Z,18.62
2019-03-13T10:03:39.167Z,18.82
2019-03-13T10:06:12.605Z,19.05
2019-03-13T10:08:46.810Z,18.95
2019-03-13T10:11:20.465Z,19.15
2019-03-13T10:13:54.420Z,18.40
2019-03-13T10:16:28.201Z,18.95
2019-03-13T10:22:15.783Z,19.35
2019-03-13T10:24:49.621Z,20.08
2019-03-13T10:27:23.466Z,19.95
2019-03-13T10:29:57.299Z,22.17
2019-03-13T10:32:31.409Z,20.55
2019-03-13T10:35:05.288Z,22.30
2019-03-13T10:37:39.232Z,21.48
2019-03-13T10:40:14.165Z,21.73
2019-03-13T10:42:48.575Z,21.60
2019-03-13T10:45:22.742Z,21.95
2019-03-13T10:47:57.313Z,21.68
2019-03-13T10:50:31.345Z,22.82
2019-03-13T10:53:05.321Z,21.68
2019-03-13T10:55:38.994Z,21.93
2019-03-13T10:58:12.682Z,22.90
2019-03-13T11:00:47.472Z,22.67
2019-03-13T11:03:21.416Z,22.98
2019-03-13T11:05:55.433Z,24.00
2019-03-13T11:08:29.820Z,27.05
2019-03-13T11:11:04.856Z,32.13
2019-03-13T11:13:38.760Z,33.05
2019-03-13T11:16:12.709Z,28.40
2019-03-13T11:18:46.885Z,33.42
2019-03-13T11:21:21.400Z,32.28
2019-03-13T11:23:56.850Z,30.75
2019-03-13T11:26:31.585Z,40.73
2019-03-13T11:29:05.635Z,54.98
2019-03-13T11:31:59.983Z,42.03
2019-03-13T11:34:34.259Z,35.03
2019-03-13T11:37:08.247Z,33.55
2019-03-13T11:39:42.092Z,38.53
2019-03-13T11:42:16.095Z,38.40
2019-03-13T11:44:49.727Z,36.68
2019-03-13T11:47:23.846Z,33.15
2019-03-13T11:49:57.662Z,36.03
2019-03-13T11:52:31.696Z,35.03
2019-03-13T11:55:05.308Z,36.25
2019-03-13T11:57:39.180Z,36.10
2019-03-13T12:00:15.038Z,38.58
2019-03-13T12:02:48.868Z,39.83
2019-03-13T12:05:22.684Z,39.92
2019-03-13T12:07:56.947Z,48.48
2019-03-13T12:10:31.500Z,45.63
2019-03-13T12:13:05.700Z,46.23
2019-03-13T12:15:40.114Z,47.05
2019-03-13T12:18:13.916Z,47.45
2019-03-13T12:20:48.351Z,48.60
2019-03-13T12:23:22.760Z,52.10
2019-03-13T12:25:57.583Z,56.50
2019-03-13T12:28:32.415Z,47.48
2019-03-13T12:31:06.632Z,52.00
2019-03-13T12:33:40.849Z,58.78
2019-03-13T12:36:15.123Z,57.90
2019-03-13T12:38:49.598Z,55.15
2019-03-13T12:41:23.306Z,52.35
2019-03-13T12:43:57.008Z,58.48
2019-03-13T12:46:30.910Z,52.55
2019-03-13T12:49:05.016Z,52.03
2019-03-13T12:51:38.803Z,39.95
2019-03-13T12:54:12.730Z,42.70
2019-03-13T12:56:47.266Z,43.25
2019-03-13T12:59:21.174Z,40.10
2019-03-13T13:01:55.154Z,34.35
2019-03-13T13:04:28.723Z,35.23
2019-03-13T13:07:02.693Z,39.83
2019-03-13T13:09:36.397Z,74.82
2019-03-13T13:12:10.312Z,85.57
2019-03-13T13:14:43.944Z,82.10
2019-03-13T13:17:25.381Z,78.28
2019-03-13T13:19:57.789Z,80.60
2019-03-13T13:22:30.781Z,87.47
2019-03-13T13:25:03.396Z,80.42
2019-03-13T13:27:36.249Z,81.28
2019-03-13T13:30:10.945Z,87.85
2019-03-13T13:32:43.956Z,88.50
2019-03-13T13:35:17.017Z,82.75
2019-03-13T13:37:49.786Z,87.17
2019-03-13T13:40:22.135Z,79.95
2019-03-13T13:42:55.299Z,67.42
2019-03-13T13:45:32.738Z,58.25
2019-03-13T13:48:03.754Z,76.25
2019-03-13T13:50:36.175Z,88.45
2019-03-13T13:53:09.365Z,67.03
2019-03-13T13:55:41.762Z,68.60
2019-03-13T13:58:14.786Z,82.70
2019-03-13T14:00:47.137Z,99.75
2019-03-13T14:03:19.686Z,109.70
2019-03-13T14:05:51.979Z,91.53
2019-03-13T14:08:24.817Z,85.57
2019-03-13T14:10:57.263Z,81.70
2019-03-13T14:13:29.847Z,77.53
2019-03-13T14:16:02.339Z,73.02
2019-03-13T14:18:35.312Z,69.60
2019-03-13T14:21:08.250Z,73.12
2019-03-13T14:23:42.171Z,84.32
2019-03-13T14:26:14.558Z,88.82
2019-03-13T14:28:47.041Z,93.65
2019-03-13T14:31:19.355Z,90.62
2019-03-13T14:33:51.807Z,86.08
2019-03-13T14:36:24.350Z,84.30
2019-03-13T14:38:57.076Z,78.40
2019-03-13T14:41:29.720Z,63.80
2019-03-13T14:44:02.203Z,32.90
2019-03-13T14:46:34.815Z,48.00
2019-03-13T14:49:07.875Z,51.08
2019-03-13T14:51:40.189Z,52.25
2019-03-13T14:54:12.610Z,34.53
2019-03-13T14:56:45.101Z,38.55
2019-03-13T14:59:17.818Z,39.33
2019-03-13T15:01:51.235Z,34.98
2019-03-13T15:04:23.752Z,32.03
2019-03-13T15:06:56.606Z,31.80
2019-03-13T15:09:29.552Z,30.62
2019-03-13T15:12:01.869Z,76.00
2019-03-13T15:14:34.827Z,66.82
2019-03-13T15:17:07.286Z,59.55
2019-03-13T15:19:39.880Z,47.53
2019-03-13T15:22:12.848Z,38.08
2019-03-13T15:24:45.851Z,63.00
2019-03-13T15:27:18.035Z,55.98
2019-03-13T15:29:50.495Z,58.60
2019-03-13T15:32:22.796Z,60.52
2019-03-13T15:34:55.835Z,60.55
2019-03-13T15:37:29.933Z,54.38
2019-03-13T15:40:02.924Z,57.65
2019-03-13T15:42:36.064Z,42.38
2019-03-13T15:45:11.008Z,40.28
2019-03-13T15:47:43.841Z,40.03
2019-03-13T15:50:18.102Z,66.57
2019-03-13T15:52:50.570Z,76.80
2019-03-13T15:55:23.446Z,83.78
2019-03-13T15:57:55.763Z,62.40
2019-03-13T16:00:29.934Z,51.28
2019-03-13T16:03:02.370Z,37.25
2019-03-13T16:05:34.976Z,38.10
2019-03-13T16:08:07.392Z,36.30
2019-03-13T16:10:40.123Z,36.13
2019-03-13T16:13:12.287Z,35.48
2019-03-13T16:15:46.343Z,36.75
2019-03-13T16:18:18.844Z,35.68
2019-03-13T16:20:52.000Z,36.58
2019-03-13T16:23:24.383Z,36.30
2019-03-13T16:25:57.421Z,38.20
2019-03-13T16:28:29.840Z,36.77
2019-03-13T16:31:03.592Z,38.53
2019-03-13T16:33:35.919Z,37.75
2019-03-13T16:36:08.327Z,35.80
2019-03-13T16:38:40.754Z,38.08
2019-03-13T16:41:13.235Z,334.48
2019-03-13T16:43:45.780Z,47.55
2019-03-13T16:46:18.323Z,49.63
2019-03-13T16:48:50.896Z,41.05
2019-03-13T16:51:24.264Z,40.25
2019-03-13T16:53:57.700Z,39.53
2019-03-13T16:56:30.513Z,39.80
2019-03-13T16:59:03.395Z,40.15
2019-03-13T17:01:36.120Z,40.52
2019-03-13T17:04:08.798Z,40.08
2019-03-13T17:06:41.662Z,41.88
2019-03-13T17:09:14.047Z,45.03
2019-03-13T17:11:47.194Z,50.52
2019-03-13T17:14:20.911Z,56.42
2019-03-13T17:16:53.333Z,63.15
2019-03-13T17:19:26.356Z,58.15
2019-03-13T17:21:59.144Z,60.30
2019-03-13T17:24:32.039Z,53.63
2019-03-13T17:27:04.630Z,56.98
2019-03-13T17:29:37.271Z,57.20
2019-03-13T17:32:09.836Z,54.23
2019-03-13T17:34:42.711Z,54.13
2019-03-13T17:37:15.400Z,54.13
2019-03-13T17:39:48.014Z,55.45
2019-03-13T17:42:20.522Z,54.90
2019-03-13T17:44:52.945Z,53.87
2019-03-13T17:47:25.897Z,50.40
2019-03-13T17:49:58.363Z,48.40
2019-03-13T17:52:30.794Z,50.38
2019-03-13T17:55:03.552Z,53.90
2019-03-13T17:57:36.548Z,55.17
2019-03-13T18:00:11.349Z,51.23
2019-03-13T18:02:44.235Z,47.53
2019-03-13T18:05:17.597Z,48.50
2019-03-13T18:07:50.435Z,44.77
2019-03-13T18:10:23.707Z,46.83
2019-03-13T18:12:56.207Z,46.65
2019-03-13T18:15:28.710Z,49.03
2019-03-13T18:18:01.490Z,47.27
2019-03-13T18:20:34.750Z,49.95
2019-03-13T18:23:07.666Z,50.00
2019-03-13T18:25:40.260Z,52.17
2019-03-13T18:28:12.457Z,52.25
2019-03-13T18:30:45.176Z,54.23
2019-03-13T18:33:17.623Z,57.25
2019-03-13T18:35:50.560Z,59.48
2019-03-13T18:38:22.995Z,60.70
2019-03-13T18:40:56.822Z,60.40
2019-03-13T18:43:29.514Z,65.62
2019-03-13T18:46:02.077Z,71.45
2019-03-13T18:48:34.595Z,74.72
2019-03-13T18:51:07.308Z,71.87
2019-03-13T18:53:39.675Z,70.30
2019-03-13T18:56:12.516Z,67.65
2019-03-13T18:58:45.356Z,68.60
2019-03-13T19:01:17.822Z,66.80
2019-03-13T19:03:50.215Z,62.62
2019-03-13T19:06:22.924Z,59.67
2019-03-13T19:08:55.777Z,56.25
2019-03-13T19:11:28.422Z,57.88
2019-03-13T19:14:00.844Z,57.88
2019-03-13T19:16:34.595Z,59.40
2019-03-13T19:19:07.251Z,56.28
2019-03-13T19:21:40.891Z,53.78
2019-03-13T19:24:13.377Z,54.38
2019-03-13T19:26:46.044Z,54.27
2019-03-13T19:29:18.473Z,53.48
2019-03-13T19:31:50.907Z,53.95
2019-03-13T19:34:23.306Z,53.48
2019-03-13T19:36:55.626Z,53.65
2019-03-13T19:39:28.348Z,53.25
2019-03-13T19:42:01.119Z,51.02
2019-03-13T19:44:34.620Z,53.50
2019-03-13T19:47:07.423Z,49.90
2019-03-13T19:49:39.909Z,52.67
2019-03-13T19:52:12.591Z,51.85
2019-03-13T19:54:45.223Z,53.13
2019-03-13T19:57:17.654Z,50.73
2019-03-13T19:59:50.359Z,52.48
2019-03-13T20:02:25.207Z,53.45
2019-03-13T20:04:57.502Z,50.92
2019-03-13T20:07:30.272Z,50.67
2019-03-13T20:10:02.884Z,52.05
2019-03-13T20:12:35.789Z,53.78
2019-03-13T20:15:10.366Z,53.78
2019-03-13T20:17:42.956Z,52.45
2019-03-13T20:20:17.343Z,53.02
2019-03-13T20:22:51.643Z,53.08
2019-03-13T20:25:24.161Z,51.95
2019-03-13T20:27:56.925Z,51.75
2019-03-13T20:30:29.684Z,58.00
2019-03-13T20:33:02.307Z,59.45
2019-03-13T20:35:36.913Z,58.13
2019-03-13T20:38:09.207Z,57.48
2019-03-13T20:40:42.250Z,55.83
2019-03-13T20:43:16.014Z,53.60
2019-03-13T20:45:48.822Z,57.30
2019-03-13T20:48:21.540Z,55.80
2019-03-13T20:50:54.546Z,57.45
2019-03-13T20:53:27.573Z,57.53
2019-03-13T20:56:00.273Z,57.35
2019-03-13T20:58:32.946Z,58.63
2019-03-13T21:01:05.582Z,56.40
2019-03-13T21:03:38.171Z,54.35
2019-03-13T21:06:10.608Z,56.25
2019-03-13T21:08:43.029Z,56.28
2019-03-13T21:11:15.327Z,58.20
2019-03-13T21:13:49.257Z,54.30
2019-03-13T21:16:21.685Z,54.30
2019-03-13T21:18:54.443Z,62.25
2019-03-13T21:21:27.280Z,61.92
2019-03-13T21:23:59.753Z,66.50
2019-03-13T21:26:33.632Z,72.55
2019-03-13T21:29:05.984Z,70.08
2019-03-13T21:31:38.546Z,65.92
2019-03-13T21:34:11.175Z,65.25
2019-03-13T21:36:43.556Z,59.73
2019-03-13T21:39:16.058Z,58.75
2019-03-13T21:41:50.053Z,57.27
2019-03-13T21:44:22.661Z,57.13
2019-03-13T21:46:55.161Z,57.90
2019-03-13T21:49:27.776Z,61.05
2019-03-13T21:52:00.924Z,61.30
2019-03-13T21:54:33.421Z,63.02
2019-03-13T21:57:06.087Z,63.15
2019-03-13T21:59:39.035Z,64.12
2019-03-13T22:02:11.476Z,66.07
2019-03-13T22:04:44.067Z,61.85
2019-03-13T22:07:16.369Z,61.73
2019-03-13T22:09:48.804Z,61.73
2019-03-13T22:12:21.958Z,59.70
2019-03-13T22:14:54.399Z,57.43
2019-03-13T22:17:26.756Z,59.03
2019-03-13T22:19:59.337Z,58.15
2019-03-13T22:22:31.709Z,59.00
2019-03-13T22:25:04.398Z,305.77
2019-03-13T22:27:37.051Z,62.50
2019-03-13T22:30:11.616Z,60.85
2019-03-13T22:32:44.183Z,59.50
2019-03-13T22:35:16.990Z,60.52
2019-03-13T22:37:50.069Z,60.88
2019-03-13T22:40:22.919Z,59.42
2019-03-13T22:42:55.430Z,62.30
2019-03-13T22:45:28.322Z,59.40
2019-03-13T22:48:00.751Z,60.73
2019-03-13T22:50:33.542Z,60.50
2019-03-13T22:53:05.946Z,60.45
2019-03-13T22:55:40.904Z,60.15
2019-03-13T22:58:12.082Z,61.15
2019-03-13T23:00:49.140Z,59.53
2019-03-13T23:03:24.855Z,59.53
2019-03-13T23:05:57.557Z,59.27
2019-03-13T23:08:31.270Z,59.42
2019-03-13T23:11:03.702Z,59.67
2019-03-13T23:13:36.645Z,59.25
2019-03-13T23:16:09.176Z,62.78
2019-03-13T23:18:42.008Z,66.15
2019-03-13T23:21:14.674Z,61.83
2019-03-13T23:23:47.632Z,64.07
2019-03-13T23:26:20.463Z,65.78
2019-03-13T23:28:53.280Z,97.42
2019-03-13T23:31:25.771Z,88.72
2019-03-13T23:33:58.252Z,74.35
2019-03-13T23:36:31.524Z,70.90
2019-03-13T23:39:04.121Z,71.90
2019-03-13T23:41:38.024Z,71.12
2019-03-13T23:44:10.701Z,70.32
2019-03-13T23:46:43.417Z,68.22
2019-03-13T23:49:16.123Z,72.37
2019-03-13T23:51:48.579Z,83.03
2019-03-13T23:54:21.366Z,87.75
2019-03-13T23:56:54.563Z,90.77
2019-03-13T23:59:27.144Z,86.20
